Time;durP1;ratioP1;P1;durP2;ratioP2;P2;SDS_P1;SDS_P2;PMS_P1;PMS_P2;Temp;Humidity;BMP_temperature;BMP_pressure;BME280_temperature;BME280_humidity;BME280_pressure;Samples;Min_cycle;Max_cycle;Signal;HPM_P1;HPM_P2
2022/06/15 00:01:58;;;;;;;;;;;;;;;-144.47;43.58;53205.66;5017348;28;19913;-70
2022/06/15 00:04:23;;;;;;;;;;;;;;;-144.47;43.62;53201.69;5011125;28;19932;-69
2022/06/15 00:06:49;;;;;;;;;;;;;;;-144.47;43.56;53219.56;4990187;28;19909;-67
2022/06/15 00:09:14;;;;;;;;;;;;;;;-144.47;43.85;53191.78;5006415;28;19917;-68
2022/06/15 00:11:41;;;;;;;;;;;;;;;-144.47;43.96;53163.97;4994409;28;19913;-67
2022/06/15 00:14:08;;;;;;;;;;;;;;;-144.47;44.16;53219.56;5010752;28;19909;-66
2022/06/15 00:16:34;;;;;;;;;;;;;;;-144.47;44.08;53227.53;5011105;28;19925;-67
2022/06/15 00:18:59;;;;;;;;;;;;;;;-144.47;43.88;53197.72;5008397;28;19964;-69
2022/06/15 00:21:25;;;;;;;;;;;;;;;-144.47;44.22;53217.59;5010861;28;19925;-69
2022/06/15 00:23:51;;;;;;;;;;;;;;;-144.47;44.21;53235.47;5010170;28;19914;-68
2022/06/15 00:26:16;;;;;;;;;;;;;;;-144.47;44.34;53199.72;5010850;28;19985;-67
2022/06/15 00:28:42;;;;;;;;;;;;;;;-144.47;44.43;53211.63;5009639;28;19963;-68
2022/06/15 00:31:08;;;;;;;;;;;;;;;-144.47;44.63;53189.78;5010103;28;20387;-69
2022/06/15 00:33:33;;;;;;;;;;;;;;;-144.47;44.66;53205.66;4996716;28;20284;-68
2022/06/15 00:36:04;;;;;;;;;;;;;;;-144.47;44.86;53251.34;4982594;28;20393;-67
2022/06/15 00:38:30;;;;;;;;;;;;;;;-144.47;44.91;53201.69;4989229;28;19916;-67
2022/06/15 00:40:55;;;;;;;;;;;;;;;-144.47;45.07;53225.53;4992081;28;19915;-68
2022/06/15 00:43:41;;;;;;;;;;;;;;;-144.47;45.33;53221.56;4992675;28;19913;-67
2022/06/15 00:46:25;;;;;;;;;;;;;;;-144.47;45.50;53215.59;5021730;22;20381;-85
2022/06/15 00:48:53;;;;;;;;;;;;;;;-144.47;45.88;53197.72;5013247;28;19917;-86
2022/06/15 00:51:19;;;;;;;;;;;;;;;-144.47;45.78;53199.72;4994990;28;19992;-86
2022/06/15 00:53:47;;;;;;;;;;;;;;;-144.47;45.88;53201.69;5003006;28;20275;-86
2022/06/15 00:56:14;;;;;;;;;;;;;;;-144.47;46.15;53197.72;5019435;28;20003;-86
2022/06/15 00:58:43;;;;;;;;;;;;;;;-144.47;46.27;53265.25;5034730;28;19909;-86
2022/06/15 01:01:11;;;;;;;;;;;;;;;-144.47;46.42;53203.69;5010531;28;19913;-86
2022/06/15 01:03:38;;;;;;;;;;;;;;;-144.47;46.40;53219.56;5001896;28;19913;-85
2022/06/15 01:06:13;;;;;;;;;;;;;;;-144.47;46.67;53213.63;5010505;28;20020;-85
2022/06/15 01:08:57;;;;;;;;;;;;;;;-144.47;46.83;53195.75;5011215;28;20353;-85
2022/06/15 01:11:29;;;;;;;;;;;;;;;-144.47;46.83;53213.63;5040820;28;19908;-83
2022/06/15 01:14:09;;;;;;;;;;;;;;;-144.47;47.07;53229.50;5036248;28;19970;-84
2022/06/15 01:16:40;;;;;;;;;;;;;;;-144.47;47.37;53219.56;5054544;28;19927;-84
2022/06/15 01:19:05;;;;;;;;;;;;;;;-144.47;47.42;53229.50;5036235;28;19897;-84
2022/06/15 01:21:37;;;;;;;;;;;;;;;-144.47;47.44;53233.47;5036543;28;19905;-85
2022/06/15 01:24:21;;;;;;;;;;;;;;;-144.47;47.67;53239.44;5054559;28;19905;-84
2022/06/15 01:26:49;;;;;;;;;;;;;;;-144.47;47.84;53229.50;5054187;28;19906;-84
2022/06/15 01:29:26;;;;;;;;;;;;;;;-144.47;47.83;53245.41;5036367;28;19905;-86
2022/06/15 01:32:18;;;;;;;;;;;;;;;;;;;;;
2022/06/15 01:34:52;;;;;;;;;;;;;;;-144.47;48.13;53263.28;5053908;28;19940;-86
2022/06/15 01:37:21;;;;;;;;;;;;;;;-144.47;48.23;53217.59;5023568;28;19955;-85
2022/06/15 01:39:52;;;;;;;;;;;;;;;-144.47;48.27;53205.66;5053401;28;19917;-85
2022/06/15 01:42:20;;;;;;;;;;;;;;;-144.47;48.51;53219.56;5036355;28;19924;-84
2022/06/15 01:44:50;;;;;;;;;;;;;;;-144.47;48.64;53217.59;5035721;28;19905;-86
2022/06/15 01:47:39;;;;;;;;;;;;;;;-144.47;48.62;53259.31;5053581;28;19928;-86
2022/06/15 01:50:13;;;;;;;;;;;;;;;-144.47;48.94;53207.66;5053326;28;19917;-84
2022/06/15 01:52:43;;;;;;;;;;;;;;;-144.47;48.85;53239.44;5036563;28;19905;-83
2022/06/15 01:55:15;;;;;;;;;;;;;;;-144.47;49.01;53205.66;5035913;28;19924;-85
2022/06/15 01:57:43;;;;;;;;;;;;;;;-144.47;49.23;53227.53;5036275;28;19897;-83
2022/06/15 02:00:13;;;;;;;;;;;;;;;-144.47;49.16;53197.72;5036342;28;19979;-84
2022/06/15 02:02:51;;;;;;;;;;;;;;;-144.47;49.31;53253.34;5053446;28;19980;-85
2022/06/15 02:05:28;;;;;;;;;;;;;;;-144.47;49.29;53253.34;5035702;28;19976;-84
2022/06/15 02:07:59;;;;;;;;;;;;;;;-144.47;49.27;53225.53;5050345;28;19947;-84
2022/06/15 02:10:38;;;;;;;;;;;;;;;-144.47;49.67;53213.63;5032393;28;19897;-85
2022/06/15 02:13:08;;;;;;;;;;;;;;;-144.47;49.61;53217.59;5053681;28;19976;-84
2022/06/15 02:15:37;;;;;;;;;;;;;;;-144.47;49.69;53233.47;5053759;28;19964;-84
2022/06/15 02:18:12;;;;;;;;;;;;;;;-144.47;49.57;53229.50;5031146;28;19995;-85
2022/06/15 02:20:41;;;;;;;;;;;;;;;-144.47;49.66;53251.34;5053211;28;19920;-86
2022/06/15 02:23:07;;;;;;;;;;;;;;;-144.47;49.63;53233.47;5057060;28;19975;-86
2022/06/15 02:25:39;;;;;;;;;;;;;;;-144.47;49.85;53193.75;5057050;28;19971;-84
2022/06/15 02:28:07;;;;;;;;;;;;;;;-144.47;49.97;53221.56;5056762;28;20016;-84
2022/06/15 02:30:37;;;;;;;;;;;;;;;-144.47;50.20;53271.22;5056733;28;19928;-83
2022/06/15 02:33:21;;;;;;;;;;;;;;;-144.47;50.29;53239.44;5039159;28;19897;-84
2022/06/15 02:35:51;;;;;;;;;;;;;;;-144.47;50.49;53191.78;5036762;28;19921;-82
2022/06/15 02:38:16;;;;;;;;;;;;;;;-144.47;50.73;53201.69;5037341;28;19912;-86
2022/06/15 02:40:42;;;;;;;;;;;;;;;-144.47;50.65;53215.59;5017816;28;19988;-85
2022/06/15 02:43:08;;;;;;;;;;;;;;;-144.47;50.73;53229.50;5022946;28;19972;-84
2022/06/15 02:45:34;;;;;;;;;;;;;;;-144.47;50.95;53265.25;5015554;28;19936;-87
2022/06/15 02:48:03;;;;;;;;;;;;;;;-144.47;50.97;53205.66;5036186;28;19909;-85
2022/06/15 02:50:31;;;;;;;;;;;;;;;-144.47;51.02;53263.28;5027155;28;19959;-85
2022/06/15 02:53:03;;;;;;;;;;;;;;;-144.47;50.99;53231.50;5037905;28;20030;-85
2022/06/15 02:55:33;;;;;;;;;;;;;;;-144.47;51.39;53231.50;5055354;28;19935;-85
2022/06/15 02:58:05;;;;;;;;;;;;;;;-144.47;51.34;53215.59;5037942;28;20004;-86
2022/06/15 03:00:38;;;;;;;;;;;;;;;-144.47;51.40;53233.47;5055354;28;19972;-86
2022/06/15 03:03:06;;;;;;;;;;;;;;;-144.47;51.70;53231.50;5055793;28;19999;-83
2022/06/15 03:05:34;;;;;;;;;;;;;;;-144.47;51.85;53223.56;5055917;28;19908;-85
2022/06/15 03:08:02;;;;;;;;;;;;;;;-144.47;51.69;53223.56;5056039;28;19919;-83
2022/06/15 03:10:27;;;;;;;;;;;;;;;-144.47;51.99;53219.56;5037499;28;19972;-84
2022/06/15 03:12:52;;;;;;;;;;;;;;;-144.47;51.94;53237.44;5050346;28;19908;-85
2022/06/15 03:15:18;;;;;;;;;;;;;;;-144.47;51.99;53245.41;5037891;28;19905;-85
2022/06/15 03:17:43;;;;;;;;;;;;;;;-144.47;52.18;53239.44;5055129;28;19932;-85
2022/06/15 03:20:10;;;;;;;;;;;;;;;-144.47;52.04;53235.47;5037600;28;19985;-85
2022/06/15 03:22:38;;;;;;;;;;;;;;;-144.47;52.29;53233.47;5055281;28;19928;-85
2022/06/15 03:25:04;;;;;;;;;;;;;;;-144.47;52.42;53233.47;5035614;28;19909;-85
2022/06/15 03:27:29;;;;;;;;;;;;;;;-144.47;52.89;53253.34;5056786;28;19913;-84
2022/06/15 03:29:55;;;;;;;;;;;;;;;-144.47;52.51;53221.56;5038379;28;19969;-85
2022/06/15 03:32:20;;;;;;;;;;;;;;;-144.47;52.41;53237.44;5038961;28;19905;-85
2022/06/15 03:34:46;;;;;;;;;;;;;;;-144.47;52.21;53251.34;5037937;28;19917;-84
2022/06/15 03:37:12;;;;;;;;;;;;;;;-144.47;52.24;53221.56;5054831;28;20008;-86
2022/06/15 03:39:38;;;;;;;;;;;;;;;-144.47;52.19;53241.44;5030184;28;19913;-85
2022/06/15 03:42:22;;;;;;;;;;;;;;;-144.47;52.32;53225.53;5031804;28;19936;-84
2022/06/15 03:44:48;;;;;;;;;;;;;;;-144.47;52.08;53259.31;5031850;28;19999;-84
2022/06/15 03:47:17;;;;;;;;;;;;;;;-144.47;52.25;53245.41;5049700;28;19913;-83
2022/06/15 03:49:48;;;;;;;;;;;;;;;-144.47;52.12;53231.50;5033280;28;19909;-85
2022/06/15 03:52:16;;;;;;;;;;;;;;;-144.47;52.39;53241.44;5031637;28;20302;-85
2022/06/15 03:54:49;;;;;;;;;;;;;;;-144.47;52.24;53229.50;5035130;28;19917;-85
2022/06/15 03:57:16;;;;;;;;;;;;;;;-144.47;51.97;53227.53;5032653;28;19955;-85
2022/06/15 03:59:41;;;;;;;;;;;;;;;-144.47;52.02;53237.44;5029382;28;20035;-84
2022/06/15 04:02:09;;;;;;;;;;;;;;;-144.47;51.99;53243.41;5031099;28;19917;-84
2022/06/15 04:04:34;;;;;;;;;;;;;;;-144.47;52.09;53269.22;5052035;28;19904;-85
2022/06/15 04:07:02;;;;;;;;;;;;;;;-144.47;51.54;53263.28;5032849;28;19970;-85
2022/06/15 04:09:28;;;;;;;;;;;;;;;-144.47;51.82;53219.56;5046137;28;19916;-83
2022/06/15 04:12:12;;;;;;;;;;;;;;;-144.47;51.61;53235.47;5047826;28;19951;-87
2022/06/15 04:14:47;;;;;;;;;;;;;;;-144.47;51.85;53259.31;5059585;28;19909;-84
2022/06/15 04:17:18;;;;;;;;;;;;;;;-144.47;51.69;53233.47;5045824;28;19976;-86
2022/06/15 04:19:43;;;;;;;;;;;;;;;-144.47;51.52;53239.44;5053619;28;19909;-87
2022/06/15 04:22:14;;;;;;;;;;;;;;;-144.47;51.92;53229.50;5053124;28;19917;-86
2022/06/15 04:24:42;;;;;;;;;;;;;;;-144.47;51.80;53265.25;5041838;28;19917;-86
2022/06/15 04:30:18;;;;;;;;;;;;;;;;;;;;;
2022/06/15 04:32:43;;;;;;;;;;;;;;;-144.47;51.77;53233.47;5054474;28;19936;-85
2022/06/15 04:35:09;;;;;;;;;;;;;;;-144.47;51.68;53219.56;5036085;28;19921;-87
2022/06/15 04:37:40;;;;;;;;;;;;;;;-144.47;51.72;53235.47;5035887;28;19931;-87
2022/06/15 04:40:09;;;;;;;;;;;;;;;-144.47;51.81;53231.50;5032773;28;19914;-88
2022/06/15 04:42:37;;;;;;;;;;;;;;;-144.47;51.63;53199.72;5030978;28;19980;-86
2022/06/15 04:45:05;;;;;;;;;;;;;;;-144.47;51.70;53225.53;5025844;28;20016;-86
2022/06/15 04:47:30;;;;;;;;;;;;;;;-144.47;51.64;53253.34;5041044;28;19917;-85
2022/06/15 04:49:55;;;;;;;;;;;;;;;-144.47;51.64;53221.56;5024750;28;20257;-86
2022/06/15 04:52:21;;;;;;;;;;;;;;;-144.47;51.57;53231.50;5041011;28;19916;-85
2022/06/15 04:55:11;;;;;;;;;;;;;;;-144.47;51.72;53227.53;5023380;28;20036;-86
2022/06/15 04:57:44;;;;;;;;;;;;;;;-144.47;51.90;53213.63;5021471;28;19908;-87
2022/06/15 05:00:22;;;;;;;;;;;;;;;-144.47;51.84;53243.41;5003214;28;20335;-88
2022/06/15 05:02:49;;;;;;;;;;;;;;;-144.47;51.98;53219.56;5009595;28;19917;-87
2022/06/15 05:05:16;;;;;;;;;;;;;;;-144.47;51.54;53231.50;5022635;28;19912;-87
2022/06/15 05:07:50;;;;;;;;;;;;;;;-144.47;51.27;53209.66;5021686;28;20467;-87
2022/06/15 05:10:21;;;;;;;;;;;;;;;-144.47;51.20;53245.41;5018891;28;19909;-86
2022/06/15 05:12:49;;;;;;;;;;;;;;;-144.47;50.73;53217.59;5037680;28;19958;-86
2022/06/15 05:15:17;;;;;;;;;;;;;;;-144.47;50.82;53223.56;5036972;28;19996;-86
2022/06/15 05:17:52;;;;;;;;;;;;;;;-144.47;50.58;53215.59;5017914;28;19959;-86
2022/06/15 05:20:34;;;;;;;;;;;;;;;-144.47;50.18;53221.56;5037115;28;20330;-86
2022/06/15 05:23:21;;;;;;;;;;;;;;;-144.47;50.00;53193.75;5011351;28;19976;-86
2022/06/15 05:25:49;;;;;;;;;;;;;;;-144.47;50.07;53229.50;5020503;28;19973;-86
2022/06/15 05:28:34;;;;;;;;;;;;;;;-144.47;50.35;53221.56;5034659;28;19909;-86
2022/06/15 05:31:16;;;;;;;;;;;;;;;-144.47;50.35;53185.81;5038923;28;19912;-87
2022/06/15 05:33:59;;;;;;;;;;;;;;;-144.47;50.24;53237.44;5003257;28;20326;-86
2022/06/15 05:36:37;;;;;;;;;;;;;;;-144.47;50.06;53225.53;5012177;28;19916;-86
2022/06/15 05:39:10;;;;;;;;;;;;;;;-144.47;49.73;53253.34;5038789;28;19909;-86
2022/06/15 05:41:38;;;;;;;;;;;;;;;-144.47;49.93;53233.47;5044929;28;19920;-86
2022/06/15 05:47:11;;;;;;;;;;;;;;;-144.47;49.41;53233.47;4980099;28;19973;-87
2022/06/15 05:49:41;;;;;;;;;;;;;;;-144.47;49.55;53239.44;4980566;28;19928;-86
2022/06/15 05:52:20;;;;;;;;;;;;;;;-144.47;49.77;53215.59;4964909;28;19913;-86
2022/06/15 05:54:58;;;;;;;;;;;;;;;;;;;;;
2022/06/15 05:57:29;;;;;;;;;;;;;;;-144.47;49.48;53223.56;4982869;28;20076;-85
2022/06/15 06:00:03;;;;;;;;;;;;;;;-144.47;49.39;53219.56;4981909;28;20012;-86
2022/06/15 06:02:43;;;;;;;;;;;;;;;;;;;;;
2022/06/15 06:05:14;;;;;;;;;;;;;;;-144.47;49.06;53227.53;4980568;28;20005;-85
2022/06/15 06:07:52;;;;;;;;;;;;;;;-144.47;49.06;53209.66;4979874;28;19910;-85
2022/06/15 06:10:20;;;;;;;;;;;;;;;-144.47;48.93;53205.66;4972181;28;19921;-85
2022/06/15 06:12:48;;;;;;;;;;;;;;;-144.47;48.39;53231.50;4979176;28;20371;-86
2022/06/15 06:15:17;;;;;;;;;;;;;;;-144.47;48.67;53223.56;4958696;28;19914;-86
2022/06/15 06:18:01;;;;;;;;;;;;;;;-144.47;48.51;53213.63;4977967;28;19981;-86
2022/06/15 06:20:26;;;;;;;;;;;;;;;-144.47;48.46;53201.69;4973159;28;19917;-86
2022/06/15 06:26:01;;;;;;;;;;;;;;;-144.47;48.06;53235.47;5039495;28;19946;-86
2022/06/15 06:28:33;;;;;;;;;;;;;;;-144.47;48.00;53191.78;5018809;28;19921;-88
2022/06/15 06:31:13;;;;;;;;;;;;;;;-144.47;47.60;53183.81;5012054;28;19955;-87
2022/06/15 06:33:50;;;;;;;;;;;;;;;-144.47;47.30;53199.72;5022610;28;19913;-87
2022/06/15 06:36:29;;;;;;;;;;;;;;;-144.47;47.28;53197.72;5021709;28;19974;-86
2022/06/15 06:38:54;;;;;;;;;;;;;;;-144.47;46.50;53229.50;5034501;28;19909;-86
2022/06/15 06:41:21;;;;;;;;;;;;;;;-144.47;46.75;53181.84;5022215;28;19913;-86
2022/06/15 06:43:59;;;;;;;;;;;;;;;-144.47;46.63;53203.69;5004149;28;19917;-87
2022/06/15 06:46:25;;;;;;;;;;;;;;;-144.47;46.70;53167.94;5033573;28;19916;-88
2022/06/15 06:48:54;;;;;;;;;;;;;;;-144.47;46.50;53191.78;5038233;28;20004;-87
2022/06/15 06:51:21;;;;;;;;;;;;;;;-144.47;45.80;53239.44;5043482;28;19909;-87
2022/06/15 06:53:48;;;;;;;;;;;;;;;-144.47;46.03;53217.59;5044488;28;19913;-86
2022/06/15 06:56:16;;;;;;;;;;;;;;;-144.47;46.00;53209.66;5030026;28;19992;-86
2022/06/15 06:58:44;;;;;;;;;;;;;;;-144.47;45.28;53251.34;5023802;28;19963;-87
2022/06/15 07:01:09;;;;;;;;;;;;;;;-144.47;44.08;53229.50;5024267;28;20004;-86
2022/06/15 07:03:37;;;;;;;;;;;;;;;-144.47;44.04;53199.72;5026974;28;20361;-85
2022/06/15 07:06:10;;;;;;;;;;;;;;;-144.47;43.69;53209.66;5041477;28;19932;-87
2022/06/15 07:08:38;;;;;;;;;;;;;;;-144.47;43.82;53173.88;5038976;28;19920;-87
2022/06/15 07:11:17;;;;;;;;;;;;;;;-144.47;43.99;53185.81;5021533;28;19916;-87
2022/06/15 07:13:54;;;;;;;;;;;;;;;-144.47;43.83;53193.75;5033624;28;19916;-88
2022/06/15 07:16:30;;;;;;;;;;;;;;;;;;;;;
2022/06/15 07:19:11;;;;;;;;;;;;;;;-144.47;43.19;53156.00;4956606;29;20017;-87
2022/06/15 07:21:38;;;;;;;;;;;;;;;-144.47;43.28;53183.81;4956350;28;19910;-88
2022/06/15 07:24:08;;;;;;;;;;;;;;;-144.47;43.22;53161.97;4941380;29;19914;-87
2022/06/15 07:26:40;;;;;;;;;;;;;;;-144.47;43.09;53163.97;4958338;29;19918;-86
2022/06/15 07:29:11;;;;;;;;;;;;;;;-144.47;42.72;53130.19;4955519;29;20355;-86
2022/06/15 07:31:42;;;;;;;;;;;;;;;-144.47;42.39;53161.97;4941290;29;19914;-86
2022/06/15 07:34:08;;;;;;;;;;;;;;;-144.47;41.43;53183.81;4939981;29;19910;-86
2022/06/15 07:36:39;;;;;;;;;;;;;;;-144.47;41.43;53165.94;4939352;29;20059;-86
2022/06/15 07:39:05;;;;;;;;;;;;;;;-144.47;41.31;53187.78;4937684;29;19921;-86
2022/06/15 07:41:38;;;;;;;;;;;;;;;-144.47;41.93;53150.06;4940307;29;19940;-87
2022/06/15 07:44:13;;;;;;;;;;;;;;;-144.47;41.81;53148.06;4959739;29;19925;-86
2022/06/15 07:46:42;;;;;;;;;;;;;;;-144.47;40.83;53146.09;4940914;29;19965;-87
2022/06/15 07:51:58;;;;;;;;;;;;;;;-144.47;39.51;53140.13;4929212;29;20338;-86
2022/06/15 07:54:33;;;;;;;;;;;;;;;-144.47;39.40;53146.09;4939709;28;19910;-87
2022/06/15 07:57:06;;;;;;;;;;;;;;;-144.47;39.96;53118.28;5022251;28;19909;-87
2022/06/15 07:59:31;;;;;;;;;;;;;;;-144.47;40.68;53118.28;5018538;28;19909;-87
2022/06/15 08:01:59;;;;;;;;;;;;;;;-144.47;40.26;53138.13;5036480;28;19930;-85
2022/06/15 08:04:24;;;;;;;;;;;;;;;-144.47;39.65;53160.00;5016435;28;20249;-87
2022/06/15 08:06:53;;;;;;;;;;;;;;;-144.47;39.43;53148.06;5019190;28;20008;-87
2022/06/15 08:09:18;;;;;;;;;;;;;;;-144.47;39.53;53177.88;5018653;28;19920;-87
2022/06/15 08:12:11;;;;;;;;;;;;;;;-144.47;39.53;53154.03;5036764;28;19909;-87
2022/06/15 08:14:31;;;;;;;;;;;;;;;-144.47;39.11;53146.09;5042969;28;19923;-88
2022/06/15 08:17:01;;;;;;;;;;;;;;;-144.47;39.05;53142.09;5025204;28;19959;-87
2022/06/15 08:19:28;;;;;;;;;;;;;;;-144.47;38.70;53161.97;5007606;28;19909;-87
2022/06/15 08:21:54;;;;;;;;;;;;;;;-144.47;38.66;53114.31;5021412;28;20308;-88
2022/06/15 08:24:21;;;;;;;;;;;;;;;-144.47;38.77;53142.09;5036433;28;19925;-86
2022/06/15 08:26:47;;;;;;;;;;;;;;;-144.47;38.95;53144.09;5035616;28;19909;-87
2022/06/15 08:29:14;;;;;;;;;;;;;;;-144.47;38.72;53138.13;5019781;28;19991;-86
2022/06/15 08:31:39;;;;;;;;;;;;;;;-144.47;39.10;53161.97;5017684;28;19909;-87
2022/06/15 08:34:05;;;;;;;;;;;;;;;-144.47;38.75;53124.22;5034709;28;19960;-87
2022/06/15 08:36:34;;;;;;;;;;;;;;;-144.47;38.79;53160.00;5019532;28;19968;-86
2022/06/15 08:38:59;;;;;;;;;;;;;;;-144.47;37.98;53114.31;5013663;28;19913;-86
2022/06/15 08:41:28;;;;;;;;;;;;;;;-144.47;37.82;53114.31;5037160;28;19971;-86
2022/06/15 08:43:55;;;;;;;;;;;;;;;-144.47;37.64;53098.41;5017152;28;20027;-85
2022/06/15 08:46:37;;;;;;;;;;;;;;;-144.47;37.57;53130.19;5006435;28;19914;-86
2022/06/15 08:49:15;;;;;;;;;;;;;;;-144.47;37.07;53118.28;5033163;28;19913;-89
2022/06/15 08:51:41;;;;;;;;;;;;;;;-144.47;36.62;53146.09;5017644;28;19923;-85
2022/06/15 08:54:17;;;;;;;;;;;;;;;-144.47;36.44;53130.19;5016910;28;19920;-87
2022/06/15 08:56:45;;;;;;;;;;;;;;;-144.47;35.96;53118.28;5034112;28;20237;-84
2022/06/15 08:59:18;;;;;;;;;;;;;;;-144.47;36.03;53140.13;5017645;28;20334;-87
2022/06/15 09:02:03;;;;;;;;;;;;;;;-144.47;35.95;53114.31;5039915;28;19959;-87
2022/06/15 09:04:39;;;;;;;;;;;;;;;-144.47;35.82;53094.44;5023436;28;19913;-88
2022/06/15 09:07:11;;;;;;;;;;;;;;;-144.47;35.38;53144.09;5017971;28;20307;-88
2022/06/15 09:09:48;;;;;;;;;;;;;;;-144.47;34.74;53122.25;5016477;28;19909;-88
2022/06/15 09:12:52;;;;;;;;;;;;;;;-144.47;34.71;53102.38;5034439;28;19909;-87
2022/06/15 09:15:33;;;;;;;;;;;;;;;-144.47;35.04;53124.22;5016140;28;19909;-87
2022/06/15 09:18:06;;;;;;;;;;;;;;;-144.47;34.65;53086.50;5015716;28;19909;-87
2022/06/15 09:20:46;;;;;;;;;;;;;;;-144.47;34.68;53084.50;5015110;28;19913;-85
2022/06/15 09:23:19;;;;;;;;;;;;;;;-144.47;34.32;53126.22;5043810;28;19964;-87
2022/06/15 09:25:48;;;;;;;;;;;;;;;-144.47;34.17;53078.53;5016450;28;20003;-85
2022/06/15 09:28:37;;;;;;;;;;;;;;;-144.47;33.61;53094.44;5034228;28;19909;-86
2022/06/15 09:31:07;;;;;;;;;;;;;;;-144.47;33.79;53068.63;5016200;28;20419;-86
2022/06/15 09:33:40;;;;;;;;;;;;;;;-144.47;34.07;53094.44;5038475;28;20039;-85
2022/06/15 09:36:12;;;;;;;;;;;;;;;-144.47;33.87;53120.25;5035409;28;20349;-85
2022/06/15 09:38:41;;;;;;;;;;;;;;;-144.47;33.30;53098.41;5018202;28;19981;-87
2022/06/15 09:41:13;;;;;;;;;;;;;;;-144.47;33.13;53120.25;5017387;28;19913;-86
2022/06/15 09:44:01;;;;;;;;;;;;;;;-144.47;33.30;53088.47;5016514;28;19921;-84
2022/06/15 09:46:38;;;;;;;;;;;;;;;-144.47;32.93;53090.47;5034963;28;19998;-87
2022/06/15 09:49:27;;;;;;;;;;;;;;;-144.47;32.72;53100.41;5038744;28;19901;-87
2022/06/15 09:52:10;;;;;;;;;;;;;;;-144.47;32.78;53054.72;4953106;28;19994;-87
2022/06/15 09:55:01;;;;;;;;;;;;;;;-144.47;32.47;53066.63;4953786;29;20053;-86
2022/06/15 09:57:29;;;;;;;;;;;;;;;-144.47;32.84;53096.41;4941265;29;20009;-87
2022/06/15 09:59:57;;;;;;;;;;;;;;;-144.47;32.80;53068.63;4952596;28;20410;-86
2022/06/15 10:02:44;;;;;;;;;;;;;;;-144.47;32.45;53066.63;4952763;29;20002;-85
2022/06/15 10:05:16;;;;;;;;;;;;;;;-144.47;32.83;53038.81;4926548;28;20062;-85
2022/06/15 10:07:45;;;;;;;;;;;;;;;-144.47;32.61;53082.53;4938771;29;19910;-87
2022/06/15 10:10:21;;;;;;;;;;;;;;;-144.47;32.14;53054.72;4953284;29;19915;-86
2022/06/15 10:12:56;;;;;;;;;;;;;;;-144.47;32.46;53090.47;4955620;28;19910;-87
2022/06/15 10:15:26;;;;;;;;;;;;;;;-144.47;32.60;53116.28;4945924;29;19910;-86
2022/06/15 10:17:54;;;;;;;;;;;;;;;-144.47;32.36;53082.53;4950105;29;20008;-89
2022/06/15 10:20:29;;;;;;;;;;;;;;;-144.47;32.13;53082.53;4947048;28;20363;-85
2022/06/15 10:22:55;;;;;;;;;;;;;;;-144.47;31.53;53086.50;4953756;29;19914;-86
2022/06/15 10:25:24;;;;;;;;;;;;;;;-144.47;31.68;53092.44;4953631;28;19958;-86
2022/06/15 10:28:07;;;;;;;;;;;;;;;-144.47;31.70;53054.72;4941899;28;19953;-86
2022/06/15 10:30:32;;;;;;;;;;;;;;;-144.47;31.66;53042.78;5030739;28;19921;-87
2022/06/15 10:33:08;;;;;;;;;;;;;;;-144.47;31.71;53048.75;5038111;28;20352;-86
2022/06/15 10:35:36;;;;;;;;;;;;;;;-144.47;31.56;53050.75;5023715;28;19909;-86
2022/06/15 10:38:04;;;;;;;;;;;;;;;-144.47;31.88;53068.63;5020144;28;19955;-87
2022/06/15 10:40:35;;;;;;;;;;;;;;;-144.47;31.91;53054.72;5017876;28;19916;-87
2022/06/15 10:43:28;;;;;;;;;;;;;;;-144.47;31.38;53084.50;5020820;28;20316;-85
2022/06/15 10:45:56;;;;;;;;;;;;;;;-144.47;31.14;53050.75;5022800;28;19976;-87
2022/06/15 10:48:38;;;;;;;;;;;;;;;-144.47;30.89;53038.81;5023370;28;19963;-84
2022/06/15 10:51:08;;;;;;;;;;;;;;;-144.47;31.15;53034.84;5039415;28;19909;-86
2022/06/15 10:54:11;;;;;;;;;;;;;;;-144.47;31.28;53064.66;5019339;28;20364;-87
2022/06/15 11:02:29;;;;;;;;;;;;;;;-144.47;30.41;53034.84;5037138;28;19962;-87
2022/06/15 11:05:06;;;;;;;;;;;;;;;-144.47;30.50;53040.81;5035673;28;19909;-86
2022/06/15 11:07:50;;;;;;;;;;;;;;;-144.47;30.19;53042.78;5018670;28;20019;-86
2022/06/15 11:10:34;;;;;;;;;;;;;;;-144.47;30.24;53032.88;5016652;28;19909;-86
2022/06/15 11:13:01;;;;;;;;;;;;;;;-144.47;30.31;53044.78;5008836;28;19909;-88
2022/06/15 11:18:01;;;;;;;;;;;;;;;-144.47;30.19;53056.69;5016010;28;19909;-85
2022/06/15 11:18:24;;;;;;;;;;;;;;;-144.47;29.98;53046.75;5035342;28;19909;-87
2022/06/15 11:20:58;;;;;;;;;;;;;;;-144.47;29.75;53050.75;5018050;28;20353;-86
2022/06/15 11:23:32;;;;;;;;;;;;;;;-144.47;30.09;53038.81;5035677;28;20254;-82
2022/06/15 11:29:39;;;;;;;;;;;;;;;-144.47;29.50;53060.66;5028539;28;20059;-85
2022/06/15 11:32:10;;;;;;;;;;;;;;;-144.47;29.20;53046.75;4984382;28;19959;-86
2022/06/15 11:34:37;;;;;;;;;;;;;;;-144.47;29.12;53009.03;5018994;28;19909;-86
2022/06/15 11:37:05;;;;;;;;;;;;;;;-144.47;29.51;53034.84;5036256;28;19992;-83
2022/06/15 11:39:37;;;;;;;;;;;;;;;-144.47;29.39;53048.75;5019861;28;19990;-86
2022/06/15 11:42:12;;;;;;;;;;;;;;;-144.47;29.50;53009.03;5007538;28;19989;-86
2022/06/15 11:44:40;;;;;;;;;;;;;;;-144.47;29.09;53056.69;5001006;28;20437;-86
2022/06/15 11:47:05;;;;;;;;;;;;;;;-144.47;29.25;53048.75;5023630;28;19909;-87
2022/06/15 11:49:30;;;;;;;;;;;;;;;-144.47;29.05;53042.78;5017258;28;19961;-85
2022/06/15 11:52:05;;;;;;;;;;;;;;;-144.47;28.81;53026.91;5045087;28;20078;-86
2022/06/15 11:54:47;;;;;;;;;;;;;;;;;;;;;
2022/06/15 11:57:42;;;;;;;;;;;;;;;-144.47;28.88;53054.72;5031376;28;19914;-84
2022/06/15 12:00:16;;;;;;;;;;;;;;;-144.47;29.02;53062.66;4949658;28;19914;-86
2022/06/15 12:02:50;;;;;;;;;;;;;;;-144.47;28.68;53058.69;5019185;28;19913;-88
2022/06/15 12:05:27;;;;;;;;;;;;;;;-144.47;29.17;53020.94;5018516;28;19908;-87
2022/06/15 12:08:05;;;;;;;;;;;;;;;-144.47;28.60;53038.81;5036949;28;19909;-87
2022/06/15 12:10:50;;;;;;;;;;;;;;;-144.47;28.65;53040.81;5034783;28;19996;-86
2022/06/15 12:13:37;;;;;;;;;;;;;;;-144.47;28.42;53052.72;5017509;28;19919;-86
2022/06/15 12:16:24;;;;;;;;;;;;;;;-144.47;28.47;53005.06;5029227;28;20006;-86
2022/06/15 12:19:00;;;;;;;;;;;;;;;-144.47;28.68;53015.00;5022418;28;19897;-86
2022/06/15 12:21:49;;;;;;;;;;;;;;;-144.47;28.57;53020.94;5015018;28;19909;-84
2022/06/15 12:24:28;;;;;;;;;;;;;;;-144.47;28.29;53020.94;5028901;28;19913;-87
2022/06/15 12:27:05;;;;;;;;;;;;;;;-144.47;28.08;53018.97;5013919;28;20320;-87
2022/06/15 12:29:40;;;;;;;;;;;;;;;-144.47;27.96;53003.06;5035851;28;19959;-86
2022/06/15 12:32:24;;;;;;;;;;;;;;;-144.47;27.29;53016.97;5021665;28;20004;-85
2022/06/15 12:34:59;;;;;;;;;;;;;;;-144.47;27.28;52997.09;5013566;28;19916;-85
2022/06/15 12:37:41;;;;;;;;;;;;;;;-144.47;27.33;53020.94;5029842;28;19931;-87
2022/06/15 12:40:28;;;;;;;;;;;;;;;-144.47;27.08;53026.91;5016032;28;19909;-87
2022/06/15 12:43:17;;;;;;;;;;;;;;;-144.47;26.73;52965.34;5016716;28;19967;-88
2022/06/15 12:45:45;;;;;;;;;;;;;;;-144.47;26.57;53007.03;4994350;28;19909;-87
2022/06/15 12:48:49;;;;;;;;;;;;;;;-144.47;25.83;52975.25;5036428;28;20341;-86
2022/06/15 12:51:21;;;;;;;;;;;;;;;-144.47;25.65;52969.31;4952784;28;19910;-86
2022/06/15 12:53:53;;;;;;;;;;;;;;;-144.47;25.42;52989.16;4943606;29;19914;-83
2022/06/15 12:56:25;;;;;;;;;;;;;;;-144.47;25.29;52995.13;4976533;28;19909;-87
2022/06/15 12:58:56;;;;;;;;;;;;;;;-144.47;24.88;52961.34;5017493;28;20628;-87
2022/06/15 13:01:26;;;;;;;;;;;;;;;-144.47;24.33;52957.38;5037003;28;19920;-86
2022/06/15 13:04:20;;;;;;;;;;;;;;;-144.47;23.80;52949.44;5018912;28;19917;-87
2022/06/15 13:06:45;;;;;;;;;;;;;;;-144.47;23.43;52935.53;5036426;28;19909;-88
2022/06/15 13:09:17;;;;;;;;;;;;;;;-144.47;22.97;52887.88;5037512;28;19920;-86
2022/06/15 13:11:55;;;;;;;;;;;;;;;-144.47;23.03;52921.63;5035376;28;20001;-87
2022/06/15 13:14:26;;;;;;;;;;;;;;;-144.47;22.91;52887.88;5034090;28;19917;-88
2022/06/15 13:17:01;;;;;;;;;;;;;;;-144.47;22.92;52947.47;5034245;28;19928;-88
2022/06/15 13:19:34;;;;;;;;;;;;;;;-144.47;23.01;52927.59;5034091;28;19909;-87
2022/06/15 13:22:17;;;;;;;;;;;;;;;-144.47;22.83;52911.69;5018282;28;19952;-86